Time;durP1;ratioP1;P1;durP2;ratioP2;P2;SDS_P1;SDS_P2;PMS_P1;PMS_P2;Temp;Humidity;BMP_temperature;BMP_pressure;BME280_temperature;BME280_humidity;BME280_pressure;Samples;Min_cycle;Max_cycle;Signal;HPM_P1;HPM_P2
2023/05/26 00:00:20;;;;;;;12.93;11.50;;;22.70;99.90;;;;;;5115153;28;20421;-85
2023/05/26 00:02:46;;;;;;;15.00;11.67;;;22.80;99.90;;;;;;5115581;28;20681;-83
2023/05/26 00:05:16;;;;;;;14.80;11.47;;;22.70;99.90;;;;;;5096808;28;20307;-85
2023/05/26 00:07:42;;;;;;;12.53;11.23;;;22.80;99.90;;;;;;5097142;28;20182;-84
2023/05/26 00:10:09;;;;;;;13.90;12.20;;;22.80;99.90;;;;;;5096728;28;20519;-85
2023/05/26 00:12:35;;;;;;;14.60;11.53;;;22.70;99.90;;;;;;5115589;28;20536;-83
2023/05/26 00:15:03;;;;;;;12.57;11.23;;;22.70;99.90;;;;;;5096691;28;20535;-84
2023/05/26 00:17:28;;;;;;;14.07;12.00;;;22.70;99.90;;;;;;5096681;28;20497;-85
2023/05/26 00:19:54;;;;;;;14.43;12.93;;;22.70;99.90;;;;;;5096561;28;20483;-84
2023/05/26 00:22:20;;;;;;;12.20;11.00;;;22.70;99.90;;;;;;5115295;28;20753;-84
2023/05/26 00:24:46;;;;;;;16.07;12.30;;;22.70;99.90;;;;;;5114700;28;20403;-84
2023/05/26 00:27:13;;;;;;;18.47;12.43;;;22.70;99.90;;;;;;5114735;28;20801;-83
2023/05/26 00:29:39;;;;;;;13.70;12.10;;;22.70;99.90;;;;;;5096424;28;20290;-84
2023/05/26 00:32:06;;;;;;;13.23;11.83;;;22.70;99.90;;;;;;5096534;28;20439;-84
2023/05/26 00:34:35;;;;;;;16.80;11.50;;;22.70;99.90;;;;;;5096369;28;20400;-85
2023/05/26 00:37:01;;;;;;;14.10;11.37;;;22.70;99.90;;;;;;5114948;28;20951;-84
2023/05/26 00:39:29;;;;;;;16.60;13.10;;;22.70;99.90;;;;;;5114546;28;20896;-83
2023/05/26 00:41:54;;;;;;;14.03;12.50;;;22.70;99.90;;;;;;5096229;28;20451;-84
2023/05/26 00:44:21;;;;;;;15.93;13.00;;;22.60;99.90;;;;;;5114491;28;20976;-84
2023/05/26 00:46:47;;;;;;;16.00;13.27;;;22.60;99.90;;;;;;5114533;28;20219;-84
2023/05/26 00:49:13;;;;;;;15.27;12.13;;;22.60;99.90;;;;;;5096006;28;20412;-84
2023/05/26 00:51:40;;;;;;;14.47;12.43;;;22.50;99.90;;;;;;5114566;28;20447;-84
2023/05/26 00:54:07;;;;;;;15.70;13.20;;;22.50;99.90;;;;;;5096033;28;20180;-84
2023/05/26 00:56:35;;;;;;;18.53;13.03;;;22.40;99.90;;;;;;5114298;28;20471;-84
2023/05/26 00:59:02;;;;;;;12.97;11.57;;;22.40;99.90;;;;;;5114284;28;20457;-84
2023/05/26 01:01:29;;;;;;;15.47;12.60;;;22.40;99.90;;;;;;5114358;28;20488;-84
2023/05/26 01:03:55;;;;;;;14.00;12.20;;;22.40;99.90;;;;;;5114143;28;20432;-85
2023/05/26 01:06:22;;;;;;;14.60;12.40;;;22.40;99.90;;;;;;5114226;28;20640;-85
2023/05/26 01:08:48;;;;;;;13.60;11.67;;;22.30;99.90;;;;;;5095936;28;20417;-84
2023/05/26 01:11:26;;;;;;;17.80;12.37;;;22.30;99.90;;;;;;5114156;28;20455;-83
2023/05/26 01:14:14;;;;;;;15.07;13.47;;;22.30;99.90;;;;;;5114144;28;20381;-84
2023/05/26 01:16:54;;;;;;;14.57;12.73;;;22.30;99.90;;;;;;5081357;28;20469;-84
2023/05/26 01:19:42;;;;;;;16.70;13.47;;;22.30;99.90;;;;;;5093890;28;20746;-85
2023/05/26 01:22:48;;;;;;;14.43;12.93;;;22.30;99.90;;;;;;5094086;28;20413;-84
2023/05/26 01:25:39;;;;;;;16.00;12.47;;;22.30;99.90;;;;;;5093696;28;20499;-84
2023/05/26 01:28:15;;;;;;;13.93;11.57;;;22.20;99.90;;;;;;5126508;28;20517;-83
2023/05/26 01:30:42;;;;;;;17.03;13.60;;;22.20;99.90;;;;;;5093736;28;20929;-84
2023/05/26 01:33:08;;;;;;;15.87;13.13;;;22.20;99.90;;;;;;5126487;28;20891;-85
2023/05/26 01:35:33;;;;;;;17.27;13.90;;;22.20;99.90;;;;;;5093470;28;20523;-83
2023/05/26 01:38:00;;;;;;;16.17;13.80;;;22.20;99.90;;;;;;5126348;28;20555;-84
2023/05/26 01:40:27;;;;;;;15.00;12.70;;;22.20;99.90;;;;;;5093379;28;20196;-85
2023/05/26 01:43:08;;;;;;;13.53;12.10;;;22.10;99.90;;;;;;5092461;28;20478;-84
2023/05/26 01:45:54;;;;;;;14.50;13.00;;;22.10;99.90;;;;;;5093356;28;20460;-84
2023/05/26 01:48:22;;;;;;;15.00;13.40;;;22.10;99.90;;;;;;5093459;28;20427;-83
2023/05/26 01:50:55;;;;;;;17.70;13.80;;;22.10;99.90;;;;;;5126500;28;20510;-84
2023/05/26 01:53:26;;;;;;;16.40;13.20;;;22.00;99.90;;;;;;5126298;28;20458;-85
2023/05/26 01:55:56;;;;;;;16.03;13.40;;;22.00;99.90;;;;;;5126212;28;20445;-84
2023/05/26 01:58:23;;;;;;;15.93;14.23;;;22.00;99.90;;;;;;5092380;28;20413;-83
2023/05/26 02:00:49;;;;;;;16.83;14.50;;;21.90;99.90;;;;;;5126076;28;20839;-84
2023/05/26 02:03:15;;;;;;;17.07;14.60;;;21.90;99.90;;;;;;5126168;28;20425;-84
2023/05/26 02:05:41;;;;;;;18.27;14.93;;;21.90;99.90;;;;;;5093143;28;20573;-84
2023/05/26 02:08:09;;;;;;;14.80;13.00;;;21.90;99.90;;;;;;5093285;28;20397;-84
2023/05/26 02:10:35;;;;;;;19.10;14.57;;;21.80;99.90;;;;;;5096395;28;20937;-83
2023/05/26 02:13:00;;;;;;;16.53;14.30;;;21.80;99.90;;;;;;5097031;28;20463;-84
2023/05/26 02:15:26;;;;;;;17.63;14.70;;;21.80;99.90;;;;;;5096771;28;20199;-84
2023/05/26 02:17:54;;;;;;;19.60;14.23;;;21.80;99.90;;;;;;5098883;28;20199;-84
2023/05/26 02:20:20;;;;;;;17.03;15.10;;;21.70;99.90;;;;;;5098846;28;20191;-84
2023/05/26 02:22:46;;;;;;;17.57;14.67;;;21.70;99.90;;;;;;5117686;28;20416;-84
2023/05/26 02:25:12;;;;;;;17.03;14.30;;;21.70;99.90;;;;;;5116950;28;20596;-84
2023/05/26 02:27:37;;;;;;;18.73;14.90;;;21.60;99.90;;;;;;5117612;28;20974;-83
2023/05/26 02:30:04;;;;;;;16.03;14.30;;;21.60;99.90;;;;;;5098590;28;20223;-84
2023/05/26 02:32:30;;;;;;;19.20;14.40;;;21.60;99.90;;;;;;5117411;28;20204;-84
2023/05/26 02:34:56;;;;;;;17.67;13.53;;;21.60;99.90;;;;;;5116802;28;20461;-84
2023/05/26 02:37:22;;;;;;;19.00;14.23;;;21.50;99.90;;;;;;5098741;28;20198;-84
2023/05/26 02:39:48;;;;;;;18.40;15.53;;;21.50;99.90;;;;;;5116724;28;20392;-85
2023/05/26 02:42:13;;;;;;;15.80;12.57;;;21.50;99.90;;;;;;5098760;28;20229;-84
2023/05/26 02:44:39;;;;;;;14.97;13.07;;;21.50;99.90;;;;;;5116830;28;20183;-85
2023/05/26 02:47:05;;;;;;;14.50;12.87;;;21.50;99.90;;;;;;5098456;28;20276;-83
2023/05/26 02:49:31;;;;;;;19.27;15.70;;;21.50;99.90;;;;;;5098309;28;20182;-84
2023/05/26 02:51:57;;;;;;;16.37;13.93;;;21.50;99.90;;;;;;5098454;28;20834;-83
2023/05/26 02:54:22;;;;;;;16.33;13.10;;;21.50;99.90;;;;;;5116662;28;20168;-85
2023/05/26 02:56:48;;;;;;;18.40;15.33;;;21.50;99.90;;;;;;5116770;28;20207;-83
2023/05/26 02:59:14;;;;;;;20.47;14.50;;;21.50;99.90;;;;;;5098165;28;20701;-83
2023/05/26 03:01:39;;;;;;;17.17;13.97;;;21.50;99.90;;;;;;5116616;28;20244;-85
2023/05/26 03:04:05;;;;;;;17.57;14.17;;;21.50;99.90;;;;;;5098058;28;20816;-83
2023/05/26 03:06:32;;;;;;;18.23;14.43;;;21.50;99.90;;;;;;5097953;28;20314;-85
2023/05/26 03:08:58;;;;;;;18.73;14.83;;;21.50;99.90;;;;;;5098035;28;20220;-83
2023/05/26 03:11:23;;;;;;;17.03;13.83;;;21.50;99.90;;;;;;5116142;28;20468;-83
2023/05/26 03:13:49;;;;;;;16.97;13.83;;;21.50;99.90;;;;;;5097834;28;20515;-84
2023/05/26 03:16:15;;;;;;;19.90;14.57;;;21.50;99.90;;;;;;5116111;28;20250;-83
2023/05/26 03:18:41;;;;;;;17.57;13.77;;;21.50;99.90;;;;;;5116115;28;20416;-84
2023/05/26 03:21:08;;;;;;;16.07;13.70;;;21.40;99.90;;;;;;5114820;28;20564;-85
2023/05/26 03:23:34;;;;;;;16.93;13.87;;;21.40;99.90;;;;;;5097698;28;20193;-84
2023/05/26 03:26:00;;;;;;;20.40;15.57;;;21.50;99.90;;;;;;5097578;28;20480;-85
2023/05/26 03:28:26;;;;;;;15.40;13.77;;;21.50;99.90;;;;;;5115958;28;20179;-85
2023/05/26 03:30:52;;;;;;;26.33;14.70;;;21.50;99.90;;;;;;5115779;28;20443;-85
2023/05/26 03:33:18;;;;;;;16.83;14.20;;;21.50;99.90;;;;;;5097548;28;20188;-85
2023/05/26 03:35:44;;;;;;;19.83;15.13;;;21.40;99.90;;;;;;5097323;28;20219;-85
2023/05/26 03:38:10;;;;;;;19.20;14.80;;;21.30;99.90;;;;;;5115662;28;20427;-84
2023/05/26 03:40:36;;;;;;;18.70;14.60;;;21.30;99.90;;;;;;5115582;28;20432;-83
2023/05/26 03:43:02;;;;;;;19.30;14.43;;;21.30;99.90;;;;;;5115650;28;20923;-85
2023/05/26 03:45:28;;;;;;;20.07;15.87;;;21.30;99.90;;;;;;5097140;28;20196;-85
2023/05/26 03:47:53;;;;;;;18.07;14.93;;;21.20;99.90;;;;;;5097474;28;20691;-84
2023/05/26 03:50:19;;;;;;;21.40;15.70;;;21.10;99.90;;;;;;5115511;28;20416;-85
2023/05/26 03:52:45;;;;;;;19.47;14.77;;;21.10;99.90;;;;;;5097440;28;20180;-83
2023/05/26 03:55:11;;;;;;;20.00;16.23;;;21.10;99.90;;;;;;5115627;28;20294;-84
2023/05/26 03:57:38;;;;;;;31.23;21.57;;;21.10;99.90;;;;;;5097317;28;21039;-84
2023/05/26 04:00:10;;;;;;;25.73;18.73;;;21.10;99.90;;;;;;5113706;28;20820;-84
2023/05/26 04:02:36;;;;;;;21.17;16.50;;;21.00;99.90;;;;;;5115602;28;20428;-83
2023/05/26 04:05:02;;;;;;;20.30;15.30;;;21.00;99.90;;;;;;5114551;28;20419;-84
2023/05/26 04:07:28;;;;;;;17.53;14.90;;;21.00;99.90;;;;;;5114688;28;20807;-84
2023/05/26 04:09:53;;;;;;;22.90;15.13;;;21.00;99.90;;;;;;5096523;28;20444;-83
2023/05/26 04:12:19;;;;;;;17.77;13.70;;;21.00;99.90;;;;;;5095277;28;20191;-82
2023/05/26 04:14:45;;;;;;;18.20;14.77;;;21.00;99.90;;;;;;5114276;28;20179;-85
2023/05/26 04:17:10;;;;;;;19.73;16.23;;;21.00;99.90;;;;;;5096752;28;20243;-84
2023/05/26 04:19:36;;;;;;;18.63;14.33;;;21.00;99.90;;;;;;5114840;28;20305;-83
2023/05/26 04:22:02;;;;;;;20.57;15.30;;;21.00;99.90;;;;;;5096607;28;20187;-85
2023/05/26 04:24:27;;;;;;;21.27;17.53;;;21.00;99.90;;;;;;5094922;28;20176;-85
2023/05/26 04:26:54;;;;;;;19.03;15.80;;;21.10;99.90;;;;;;5093288;28;20577;-84
2023/05/26 04:29:20;;;;;;;16.97;15.17;;;21.10;99.90;;;;;;5099328;27;20707;-85
2023/05/26 04:31:46;;;;;;;18.93;14.30;;;21.10;99.90;;;;;;5099850;28;20513;-84
2023/05/26 04:34:12;;;;;;;18.93;15.27;;;21.10;99.90;;;;;;5092770;28;20412;-84
2023/05/26 04:36:38;;;;;;;16.90;13.83;;;21.10;99.90;;;;;;5098826;27;20447;-84
2023/05/26 04:39:08;;;;;;;19.20;15.63;;;21.00;99.90;;;;;;5114945;27;20523;-84
2023/05/26 04:41:33;;;;;;;17.80;14.63;;;21.00;99.90;;;;;;5114504;28;20287;-85
2023/05/26 04:44:00;;;;;;;20.40;16.43;;;21.10;99.90;;;;;;5104471;27;20419;-84
2023/05/26 04:46:28;;;;;;;22.23;17.40;;;21.10;99.90;;;;;;5118511;27;20231;-84
2023/05/26 04:48:56;;;;;;;18.03;14.50;;;21.20;99.90;;;;;;5114297;28;20477;-82
2023/05/26 04:51:22;;;;;;;26.03;19.70;;;21.20;99.90;;;;;;5114248;28;20474;-85
2023/05/26 04:53:48;;;;;;;418.93;259.07;;;21.30;99.90;;;;;;5096033;28;20928;-84
2023/05/26 04:56:14;;;;;;;55.23;35.70;;;21.30;99.90;;;;;;5099648;28;20440;-84
2023/05/26 04:58:40;;;;;;;23.70;18.53;;;21.30;99.90;;;;;;5096680;27;20420;-83
2023/05/26 05:01:05;;;;;;;22.77;18.10;;;21.30;99.90;;;;;;5130537;27;20214;-85
2023/05/26 05:03:34;;;;;;;23.50;18.10;;;21.30;99.90;;;;;;5102589;28;20171;-82
2023/05/26 05:06:00;;;;;;;21.90;16.13;;;21.40;99.90;;;;;;5111989;28;20215;-85
2023/05/26 05:08:26;;;;;;;24.50;17.00;;;21.40;99.90;;;;;;5102250;28;20786;-83
2023/05/26 05:10:52;;;;;;;25.20;17.83;;;21.50;99.90;;;;;;5128503;28;20443;-84
2023/05/26 05:13:18;;;;;;;21.00;15.60;;;21.50;99.90;;;;;;5090742;28;20181;-83
2023/05/26 05:15:44;;;;;;;23.07;16.60;;;21.40;99.90;;;;;;5108126;28;20551;-83
2023/05/26 05:18:09;;;;;;;21.43;15.30;;;21.50;99.90;;;;;;5124707;28;20417;-85
2023/05/26 05:20:35;;;;;;;20.80;16.20;;;21.50;99.90;;;;;;5117860;28;20444;-83
2023/05/26 05:23:01;;;;;;;23.77;17.30;;;21.50;99.90;;;;;;5111085;28;20182;-83
2023/05/26 05:25:26;;;;;;;240.60;153.13;;;21.50;99.90;;;;;;5086690;28;20211;-84
2023/05/26 05:27:52;;;;;;;175.20;114.27;;;21.50;99.90;;;;;;5086088;28;20185;-83
2023/05/26 05:30:19;;;;;;;29.03;22.10;;;21.50;99.90;;;;;;5087933;28;20202;-85
2023/05/26 05:32:45;;;;;;;22.07;17.27;;;21.60;99.90;;;;;;5113167;28;20180;-83
2023/05/26 05:35:10;;;;;;;31.63;17.07;;;21.60;99.90;;;;;;5086884;28;20432;-84
2023/05/26 05:37:36;;;;;;;22.23;15.60;;;21.60;99.90;;;;;;5088929;28;20485;-85
2023/05/26 05:40:03;;;;;;;20.23;15.93;;;21.60;99.90;;;;;;5102853;28;20612;-84
2023/05/26 05:42:29;;;;;;;21.63;16.07;;;21.60;99.90;;;;;;5093189;28;20519;-84
2023/05/26 05:44:55;;;;;;;23.93;17.13;;;21.70;99.90;;;;;;5110321;28;20894;-84
2023/05/26 05:47:20;;;;;;;21.70;17.10;;;21.60;99.90;;;;;;5094284;28;20279;-85
2023/05/26 05:49:46;;;;;;;25.40;18.27;;;21.70;99.90;;;;;;5092082;28;20210;-83
2023/05/26 05:52:14;;;;;;;22.90;17.30;;;21.70;99.90;;;;;;5118851;27;20180;-84
2023/05/26 05:54:40;;;;;;;24.73;17.03;;;21.80;99.90;;;;;;5113967;27;20168;-83
2023/05/26 05:57:05;;;;;;;21.67;17.10;;;21.80;99.90;;;;;;5090426;27;20443;-83
2023/05/26 05:59:31;;;;;;;23.53;17.90;;;21.80;99.90;;;;;;5112105;27;20254;-84
2023/05/26 06:01:57;;;;;;;22.33;16.80;;;21.80;99.90;;;;;;5108592;27;20192;-84
2023/05/26 06:04:23;;;;;;;29.00;18.00;;;21.80;99.90;;;;;;5108023;27;20251;-85
2023/05/26 06:06:50;;;;;;;23.23;16.83;;;21.90;99.90;;;;;;5113747;27;20620;-85
2023/05/26 06:09:16;;;;;;;24.20;16.47;;;21.90;99.90;;;;;;5096752;28;20187;-83
2023/05/26 06:11:43;;;;;;;26.17;17.90;;;22.00;99.90;;;;;;5115582;27;20940;-83
2023/05/26 06:14:09;;;;;;;28.97;18.70;;;22.00;99.90;;;;;;5093624;28;20180;-82
2023/05/26 06:16:34;;;;;;;22.37;18.13;;;22.00;99.90;;;;;;5112787;28;21014;-83
2023/05/26 06:19:00;;;;;;;22.60;17.17;;;22.10;99.90;;;;;;5116313;27;20188;-84
2023/05/26 06:21:26;;;;;;;20.83;17.47;;;22.10;99.90;;;;;;5128833;27;20268;-83
2023/05/26 06:23:52;;;;;;;21.00;17.30;;;22.10;99.90;;;;;;5114263;28;20175;-84
2023/05/26 06:26:18;;;;;;;22.33;18.00;;;22.10;99.90;;;;;;5129652;27;20220;-85
2023/05/26 06:28:44;;;;;;;23.27;18.07;;;22.10;99.90;;;;;;5105037;27;20468;-83
2023/05/26 06:31:10;;;;;;;25.07;16.70;;;22.00;99.90;;;;;;5119939;27;20196;-85
2023/05/26 06:33:35;;;;;;;24.97;17.97;;;22.00;99.90;;;;;;5098690;28;20179;-83
2023/05/26 06:36:01;;;;;;;26.97;18.20;;;22.00;99.90;;;;;;5115609;28;20294;-85
2023/05/26 06:38:27;;;;;;;21.27;16.47;;;22.10;99.90;;;;;;5093875;28;20175;-84
2023/05/26 06:40:52;;;;;;;21.17;17.67;;;22.10;99.90;;;;;;5115669;27;20195;-84
2023/05/26 06:43:20;;;;;;;20.13;16.20;;;22.10;99.90;;;;;;5101691;28;20218;-84
2023/05/26 06:45:46;;;;;;;25.10;18.30;;;22.10;99.90;;;;;;5091020;28;20508;-85
2023/05/26 06:48:11;;;;;;;27.37;18.47;;;22.10;99.90;;;;;;5114086;27;20416;-83
2023/05/26 06:50:37;;;;;;;23.40;17.70;;;22.10;99.90;;;;;;5104757;27;20287;-85
2023/05/26 06:53:03;;;;;;;22.27;18.20;;;22.10;99.90;;;;;;5092931;28;20615;-83
2023/05/26 06:55:28;;;;;;;26.73;17.07;;;22.10;99.90;;;;;;5092820;28;20199;-83
2023/05/26 06:57:54;;;;;;;20.63;17.50;;;22.20;99.90;;;;;;5112124;27;20187;-83
2023/05/26 07:00:21;;;;;;;25.73;18.53;;;22.20;99.90;;;;;;5097772;27;20435;-84
2023/05/26 07:02:47;;;;;;;20.60;16.97;;;22.20;99.90;;;;;;5106211;27;20190;-85
2023/05/26 07:05:12;;;;;;;19.00;16.40;;;22.30;99.90;;;;;;5090194;28;20432;-83
2023/05/26 07:07:38;;;;;;;22.17;16.03;;;22.10;99.90;;;;;;5094024;28;20532;-85
2023/05/26 07:10:05;;;;;;;21.07;16.60;;;22.20;99.90;;;;;;5092004;28;20192;-83
2023/05/26 07:12:30;;;;;;;23.07;17.40;;;22.20;99.90;;;;;;5113748;27;20176;-84
2023/05/26 07:14:56;;;;;;;24.37;17.93;;;22.20;99.90;;;;;;5109726;27;20959;-85
2023/05/26 07:17:22;;;;;;;24.00;18.07;;;22.10;99.90;;;;;;5122738;27;20766;-84
2023/05/26 07:19:47;;;;;;;23.33;17.50;;;22.00;99.90;;;;;;5088819;28;20540;-85
2023/05/26 07:22:13;;;;;;;21.40;16.73;;;22.00;99.90;;;;;;5090793;28;20207;-83
2023/05/26 07:24:39;;;;;;;21.27;17.50;;;22.20;99.90;;;;;;5103057;28;20561;-85
2023/05/26 07:27:05;;;;;;;25.10;16.77;;;22.10;99.90;;;;;;5109689;28;20219;-84
2023/05/26 07:29:32;;;;;;;25.37;18.27;;;22.10;99.90;;;;;;5108837;28;20168;-82
2023/05/26 07:31:57;;;;;;;21.33;17.37;;;22.20;99.90;;;;;;5098480;28;20520;-85
2023/05/26 07:34:23;;;;;;;24.53;17.73;;;22.10;99.90;;;;;;5090644;28;20504;-83
2023/05/26 07:36:49;;;;;;;21.63;16.87;;;22.10;99.90;;;;;;5090310;28;20197;-85
2023/05/26 07:39:15;;;;;;;21.33;16.10;;;22.00;99.90;;;;;;5093182;28;20173;-84
2023/05/26 07:41:40;;;;;;;18.97;16.10;;;22.10;99.90;;;;;;5091316;28;20995;-84
2023/05/26 07:44:06;;;;;;;19.60;15.90;;;22.10;99.90;;;;;;5094190;28;20222;-83
2023/05/26 07:46:32;;;;;;;21.83;17.50;;;22.20;99.90;;;;;;5093552;28;20579;-85
2023/05/26 07:48:57;;;;;;;22.80;17.30;;;22.20;99.90;;;;;;5091837;28;20172;-84
2023/05/26 07:51:23;;;;;;;20.30;15.77;;;22.30;99.90;;;;;;5092288;28;20289;-84
2023/05/26 07:53:49;;;;;;;23.90;16.60;;;22.30;99.90;;;;;;5089631;28;20172;-83
2023/05/26 07:56:14;;;;;;;20.00;15.83;;;22.10;99.90;;;;;;5090366;28;20208;-82
2023/05/26 07:58:40;;;;;;;19.07;15.17;;;22.20;99.90;;;;;;5090832;28;20185;-84
2023/05/26 08:01:06;;;;;;;22.17;15.70;;;22.10;99.90;;;;;;5109076;28;20730;-85
2023/05/26 08:03:33;;;;;;;18.20;16.27;;;22.20;99.90;;;;;;5094215;28;20528;-85
2023/05/26 08:05:59;;;;;;;27.23;15.73;;;22.20;99.90;;;;;;5090210;28;20487;-86
2023/05/26 08:08:25;;;;;;;23.30;16.33;;;22.20;99.90;;;;;;5083551;28;20424;-84
2023/05/26 08:10:51;;;;;;;21.47;16.37;;;22.30;99.90;;;;;;5087054;28;20441;-83
2023/05/26 08:13:17;;;;;;;20.80;17.13;;;22.30;99.90;;;;;;5105029;28;20222;-84
2023/05/26 08:15:42;;;;;;;21.70;16.57;;;22.30;99.90;;;;;;5087979;28;20197;-85
2023/05/26 08:18:08;;;;;;;23.70;16.43;;;22.50;99.90;;;;;;5109504;28;20435;-83
2023/05/26 08:20:34;;;;;;;25.27;17.80;;;22.30;99.90;;;;;;5093612;28;20203;-83
2023/05/26 08:23:00;;;;;;;18.90;15.70;;;22.40;99.90;;;;;;5092955;28;20175;-84
2023/05/26 08:25:26;;;;;;;23.60;15.73;;;22.40;99.90;;;;;;5123731;27;20216;-85
2023/05/26 08:27:52;;;;;;;16.93;14.47;;;22.50;99.90;;;;;;5093477;28;20411;-84
2023/05/26 08:30:17;;;;;;;21.07;15.27;;;22.40;99.90;;;;;;5110743;28;20614;-85
2023/05/26 08:32:43;;;;;;;21.67;16.10;;;22.40;99.90;;;;;;5091579;28;20859;-83
2023/05/26 08:35:09;;;;;;;363.07;267.97;;;22.40;99.90;;;;;;5124256;27;20274;-84
2023/05/26 08:37:35;;;;;;;41.83;32.37;;;22.60;99.90;;;;;;5098217;28;20268;-82
2023/05/26 08:40:02;;;;;;;25.93;20.27;;;22.60;99.90;;;;;;5101315;28;20215;-84
2023/05/26 08:42:32;;;;;;;23.77;18.37;;;22.60;99.90;;;;;;5113851;28;20514;-83
2023/05/26 08:44:58;;;;;;;17.83;15.93;;;22.60;99.90;;;;;;5100040;28;20440;-84
2023/05/26 08:47:26;;;;;;;19.00;16.20;;;22.60;99.90;;;;;;5103155;28;21036;-83
2023/05/26 08:50:00;;;;;;;21.03;17.13;;;22.80;99.90;;;;;;5091904;28;20207;-82
2023/05/26 08:52:26;;;;;;;20.27;15.93;;;22.80;99.90;;;;;;5092898;28;20948;-84
2023/05/26 08:54:52;;;;;;;22.63;15.63;;;22.90;99.90;;;;;;5108875;28;20412;-85
2023/05/26 08:57:19;;;;;;;19.13;15.13;;;22.80;99.90;;;;;;5089049;28;20439;-86
2023/05/26 08:59:49;;;;;;;19.60;16.27;;;22.80;99.90;;;;;;5105874;28;20168;-85
2023/05/26 09:02:15;;;;;;;18.07;14.50;;;22.70;99.90;;;;;;5124909;27;20485;-86
2023/05/26 09:04:40;;;;;;;19.23;16.53;;;22.90;99.90;;;;;;5132190;27;20437;-86
2023/05/26 09:07:07;;;;;;;20.80;16.43;;;22.90;99.90;;;;;;5092887;28;21013;-86
2023/05/26 09:09:33;;;;;;;20.33;15.50;;;23.10;99.90;;;;;;5122396;27;20551;-85
2023/05/26 09:11:58;;;;;;;17.83;15.93;;;23.10;99.90;;;;;;5111615;28;20412;-85
2023/05/26 09:14:24;;;;;;;17.20;15.00;;;23.20;99.90;;;;;;5090112;28;20176;-85
2023/05/26 09:16:52;;;;;;;17.50;14.30;;;23.20;99.90;;;;;;5105397;28;20246;-84
2023/05/26 09:19:18;;;;;;;16.43;14.73;;;23.30;99.90;;;;;;5091844;28;20178;-89
2023/05/26 09:21:51;;;;;;;17.50;14.10;;;23.20;99.90;;;;;;5093012;28;20468;-86
2023/05/26 09:24:19;;;;;;;16.13;12.70;;;23.20;99.90;;;;;;5094283;28;20515;-87
2023/05/26 09:26:47;;;;;;;26.00;21.60;;;23.50;99.90;;;;;;5093140;28;20495;-87
2023/05/26 09:29:13;;;;;;;35.63;27.90;;;23.70;99.90;;;;;;5112223;28;21006;-85
2023/05/26 09:31:43;;;;;;;17.97;14.80;;;23.80;99.90;;;;;;5113712;28;20488;-86
2023/05/26 09:34:10;;;;;;;17.43;14.60;;;24.00;99.90;;;;;;5114900;28;20170;-87
2023/05/26 09:36:37;;;;;;;19.27;14.40;;;24.20;99.90;;;;;;5113212;28;20470;-86
2023/05/26 09:39:05;;;;;;;15.90;13.53;;;24.30;99.90;;;;;;5098004;28;20411;-86
2023/05/26 09:41:38;;;;;;;18.40;15.13;;;24.40;99.90;;;;;;5096169;28;20695;-86
2023/05/26 09:44:22;;;;;;;15.77;13.70;;;24.60;99.90;;;;;;5113122;28;20430;-85
2023/05/26 09:46:52;;;;;;;17.73;14.13;;;24.70;99.90;;;;;;5093339;28;20623;-86
2023/05/26 09:49:19;;;;;;;16.47;14.00;;;24.70;99.90;;;;;;5113121;28;20415;-86
2023/05/26 09:51:49;;;;;;;15.37;13.87;;;24.80;99.90;;;;;;5128250;27;20812;-86
2023/05/26 09:54:15;;;;;;;17.10;13.63;;;24.80;99.90;;;;;;5095825;28;20480;-86
2023/05/26 09:56:53;;;;;;;18.10;14.40;;;24.90;99.90;;;;;;5104430;28;20862;-86
2023/05/26 09:59:31;;;;;;;16.10;12.90;;;25.00;99.90;;;;;;5092967;27;20179;-87
2023/05/26 10:01:57;;;;;;;16.27;13.23;;;25.10;99.90;;;;;;5108946;28;20444;-86
2023/05/26 10:04:24;;;;;;;17.17;13.63;;;25.20;99.90;;;;;;5113294;27;21039;-87
2023/05/26 10:06:52;;;;;;;15.60;13.50;;;25.20;99.90;;;;;;5093561;28;20513;-84
2023/05/26 10:09:22;;;;;;;15.43;13.37;;;25.20;99.90;;;;;;5112070;28;20756;-87
2023/05/26 10:11:49;;;;;;;15.93;13.50;;;25.20;99.90;;;;;;5112671;28;20491;-87
2023/05/26 10:14:16;;;;;;;18.17;14.10;;;25.30;99.90;;;;;;5102641;28;20499;-87
2023/05/26 10:16:42;;;;;;;15.40;13.70;;;25.30;99.90;;;;;;5112754;28;20534;-86
2023/05/26 10:19:08;;;;;;;14.73;13.13;;;25.40;99.90;;;;;;5094182;28;20958;-86
2023/05/26 10:21:40;;;;;;;15.83;12.50;;;25.40;99.90;;;;;;5113699;27;20459;-87
2023/05/26 10:24:13;;;;;;;14.23;12.73;;;25.50;99.90;;;;;;5093283;28;20955;-85
2023/05/26 10:27:00;;;;;;;16.60;13.73;;;25.50;99.90;;;;;;5114124;28;20490;-87
2023/05/26 10:29:34;;;;;;;13.60;12.30;;;25.60;99.90;;;;;;5095981;28;20415;-84
2023/05/26 10:32:00;;;;;;;16.07;12.40;;;25.40;99.90;;;;;;5092826;28;20858;-86
2023/05/26 10:34:45;;;;;;;184.37;110.93;;;25.50;99.90;;;;;;5111885;28;20507;-86
2023/05/26 10:37:18;;;;;;;61.10;43.80;;;25.60;99.90;;;;;;5093572;28;20648;-86
2023/05/26 10:39:44;;;;;;;22.10;19.17;;;25.60;99.90;;;;;;5077470;28;20487;-86
2023/05/26 10:42:20;;;;;;;17.13;15.27;;;25.60;99.90;;;;;;5111281;27;20445;-85
2023/05/26 10:44:50;;;;;;;18.00;13.90;;;25.70;99.90;;;;;;5093384;28;20427;-87
2023/05/26 10:47:19;;;;;;;16.00;13.20;;;25.70;99.90;;;;;;5093346;28;20475;-84
2023/05/26 10:49:58;;;;;;;14.80;11.83;;;25.70;99.90;;;;;;5110413;27;20446;-87
2023/05/26 10:52:45;;;;;;;14.47;12.97;;;25.90;99.90;;;;;;5096336;27;20538;-85
2023/05/26 10:55:31;;;;;;;18.73;12.57;;;25.80;99.90;;;;;;5105341;28;20493;-87
2023/05/26 10:58:32;;;;;;;15.33;13.13;;;25.40;99.90;;;;;;5108582;27;20447;-85
2023/05/26 11:01:16;;;;;;;14.13;12.63;;;25.00;99.90;;;;;;5079626;28;20468;-86
2023/05/26 11:03:47;;;;;;;21.80;14.10;;;25.30;99.90;;;;;;5106284;27;20499;-87
2023/05/26 11:06:17;;;;;;;18.80;12.40;;;25.50;99.90;;;;;;5087867;28;21458;-87
2023/05/26 11:08:48;;;;;;;19.20;12.93;;;25.70;99.90;;;;;;5109648;27;20452;-85
2023/05/26 11:11:30;;;;;;;13.50;11.97;;;25.80;99.90;;;;;;5106606;28;20458;-87
2023/05/26 11:14:10;;;;;;;14.30;12.80;;;25.80;99.90;;;;;;5111811;28;20965;-87
2023/05/26 11:16:38;;;;;;;14.30;12.90;;;25.90;99.90;;;;;;5113606;28;20520;-85
2023/05/26 11:19:05;;;;;;;13.40;12.00;;;26.00;99.90;;;;;;5108694;27;20419;-86
2023/05/26 11:21:33;;;;;;;15.87;13.20;;;26.00;99.90;;;;;;5092449;27;20490;-87
2023/05/26 11:24:00;;;;;;;15.30;12.10;;;26.10;99.90;;;;;;5104075;28;20459;-88
2023/05/26 11:26:30;;;;;;;14.73;12.90;;;26.20;99.90;;;;;;5120444;27;20487;-87
2023/05/26 11:28:56;;;;;;;16.60;13.00;;;26.20;99.90;;;;;;5107337;28;20416;-87
2023/05/26 11:31:23;;;;;;;13.20;11.90;;;26.20;99.90;;;;;;5089184;28;20495;-88
2023/05/26 11:33:49;;;;;;;17.10;13.07;;;26.30;99.90;;;;;;5106447;28;20920;-85
2023/05/26 11:36:16;;;;;;;13.67;12.27;;;26.30;99.90;;;;;;5110985;28;20858;-87
2023/05/26 11:38:43;;;;;;;18.73;13.30;;;26.30;99.90;;;;;;5094609;27;20518;-85
2023/05/26 11:41:16;;;;;;;15.80;13.30;;;26.40;99.90;;;;;;5103638;28;20523;-85
2023/05/26 11:43:46;;;;;;;14.63;11.90;;;26.50;99.90;;;;;;5092143;28;20933;-84
2023/05/26 11:46:15;;;;;;;12.97;11.43;;;26.50;99.90;;;;;;5108919;27;20518;-84
2023/05/26 11:48:42;;;;;;;12.63;11.43;;;26.60;99.90;;;;;;5092022;28;20420;-87
2023/05/26 11:51:19;;;;;;;13.53;12.13;;;26.70;99.90;;;;;;5124260;27;20513;-86
2023/05/26 11:53:46;;;;;;;13.80;12.37;;;26.70;99.90;;;;;;5117881;27;20399;-88
2023/05/26 11:56:13;;;;;;;16.37;12.90;;;26.60;99.90;;;;;;5112659;27;20453;-88
2023/05/26 11:58:54;;;;;;;14.20;12.20;;;26.60;99.90;;;;;;5093076;28;20416;-85
2023/05/26 12:01:21;;;;;;;17.53;11.37;;;26.60;99.90;;;;;;5091070;28;20454;-87
2023/05/26 12:03:50;;;;;;;12.33;11.07;;;26.60;99.90;;;;;;5101362;28;20810;-86
2023/05/26 12:06:17;;;;;;;14.03;12.57;;;26.60;99.90;;;;;;5105822;28;20486;-87
2023/05/26 12:08:49;;;;;;;15.23;11.37;;;26.70;99.90;;;;;;5105483;28;20780;-89
2023/05/26 12:11:35;;;;;;;12.97;11.07;;;26.80;99.90;;;;;;5092403;28;20862;-85
2023/05/26 12:14:10;;;;;;;11.13;9.97;;;26.90;99.90;;;;;;5102845;28;20416;-88
2023/05/26 12:16:37;;;;;;;13.80;10.90;;;26.90;99.90;;;;;;5112979;28;20463;-87
2023/05/26 12:19:08;;;;;;;15.20;11.67;;;26.80;99.90;;;;;;5102857;28;20428;-88
2023/05/26 12:21:41;;;;;;;14.67;12.20;;;26.90;99.90;;;;;;5110009;27;20448;-87
2023/05/26 12:24:07;;;;;;;12.50;10.77;;;26.90;99.90;;;;;;5098305;28;20928;-86
2023/05/26 12:26:33;;;;;;;13.70;12.33;;;27.00;99.90;;;;;;5107802;28;20575;-88
2023/05/26 12:29:09;;;;;;;12.63;11.37;;;26.90;99.90;;;;;;5090145;28;20428;-84